Time;durP1;ratioP1;P1;durP2;ratioP2;P2;SDS_P1;SDS_P2;PMS_P1;PMS_P2;Temp;Humidity;BMP_temperature;BMP_pressure;BME280_temperature;BME280_humidity;BME280_pressure;Samples;Min_cycle;Max_cycle;Signal;HPM_P1;HPM_P2
2023/06/05 00:02:05;;;;;;;8.40;4.80;;;;;;;14.10;80.63;102266.97;4977058;28;20118;-82
2023/06/05 00:04:30;;;;;;;7.10;4.40;;;;;;;14.08;80.66;102266.50;4979131;28;20026;-81
2023/06/05 00:06:57;;;;;;;5.22;3.75;;;;;;;13.89;81.45;102256.03;4986140;28;20091;-82
2023/06/05 00:09:22;;;;;;;10.68;5.22;;;;;;;13.88;81.46;102260.84;4985463;28;20618;-81
2023/06/05 00:11:48;;;;;;;9.40;4.80;;;;;;;13.97;80.67;102260.66;4982193;28;20034;-81
2023/06/05 00:14:13;;;;;;;9.13;4.40;;;;;;;13.99;80.71;102264.72;4967220;28;20030;-82
2023/06/05 00:16:38;;;;;;;7.13;4.40;;;;;;;14.13;79.82;102269.06;4979351;28;20141;-81
2023/06/05 00:19:04;;;;;;;8.20;4.00;;;;;;;13.95;80.69;102271.47;4976618;28;20041;-81
2023/06/05 00:21:30;;;;;;;7.43;4.65;;;;;;;13.85;81.81;102264.41;4973186;28;20137;-81
2023/06/05 00:23:55;;;;;;;8.98;4.85;;;;;;;13.82;81.60;102268.75;4977859;28;20128;-82
2023/06/05 00:26:20;;;;;;;8.60;5.03;;;;;;;13.79;81.54;102263.06;4975970;28;20401;-82
2023/06/05 00:28:46;;;;;;;7.28;5.00;;;;;;;13.77;81.50;102262.63;4993181;28;20030;-82
2023/06/05 00:31:12;;;;;;;6.25;4.45;;;;;;;13.80;81.32;102259.06;4972810;28;20037;-82
2023/06/05 00:33:38;;;;;;;7.05;4.25;;;;;;;13.66;82.28;102269.97;4979021;28;20121;-82
2023/06/05 00:36:04;;;;;;;7.97;4.18;;;;;;;13.67;82.61;102272.44;4977962;28;20425;-82
2023/06/05 00:38:29;;;;;;;8.13;5.22;;;;;;;13.61;82.08;102269.06;4989673;28;20035;-82
2023/06/05 00:40:55;;;;;;;5.80;4.35;;;;;;;13.47;82.44;102263.13;4978662;28;20033;-82
2023/06/05 00:43:20;;;;;;;6.25;4.80;;;;;;;13.58;82.80;102258.56;4977020;28;20526;-82
2023/06/05 00:45:45;;;;;;;8.90;5.05;;;;;;;13.53;82.43;102261.63;4981120;28;20089;-82
2023/06/05 00:48:11;;;;;;;9.25;5.10;;;;;;;13.60;82.07;102256.19;4977218;28;20422;-82
2023/06/05 00:50:37;;;;;;;6.25;4.55;;;;;;;13.53;81.82;102247.56;4978776;28;20080;-81
2023/06/05 00:53:05;;;;;;;7.18;4.88;;;;;;;13.39;84.20;102252.88;4981261;28;20030;-81
2023/06/05 00:55:31;;;;;;;7.22;4.70;;;;;;;13.38;83.27;102254.03;4977937;28;20387;-81
2023/06/05 00:57:56;;;;;;;8.27;5.15;;;;;;;13.52;82.07;102253.59;4995569;28;20041;-81
2023/06/05 01:00:23;;;;;;;7.10;4.07;;;;;;;13.66;79.94;102253.09;4974389;28;20038;-81
2023/06/05 01:02:53;;;;;;;6.97;4.90;;;;;;;13.50;81.92;102255.94;4986647;28;20117;-81
2023/06/05 01:05:19;;;;;;;6.63;4.30;;;;;;;13.50;81.80;102253.94;4976437;28;20161;-81
2023/06/05 01:07:47;;;;;;;7.13;4.68;;;;;;;13.45;82.46;102257.03;4976293;28;20042;-81
2023/06/05 01:10:13;;;;;;;8.05;4.45;;;;;;;13.35;82.69;102251.97;4980099;28;20549;-81
2023/06/05 01:12:57;;;;;;;9.15;5.00;;;;;;;13.47;81.88;102260.31;4992720;28;20042;-80
2023/06/05 01:15:28;;;;;;;7.60;4.80;;;;;;;13.34;82.31;102248.31;4987078;28;20034;-81
2023/06/05 01:17:56;;;;;;;6.28;4.88;;;;;;;13.13;84.50;102247.75;4976225;28;20103;-82
2023/06/05 01:20:21;;;;;;;10.43;6.10;;;;;;;13.12;84.08;102241.31;4976375;28;20505;-81
2023/06/05 01:22:51;;;;;;;7.30;4.88;;;;;;;13.22;83.11;102237.97;4976793;28;20042;-81
2023/06/05 01:25:18;;;;;;;9.18;5.00;;;;;;;13.09;83.96;102233.63;4976183;28;20458;-81
2023/06/05 01:28:21;;;;;;;9.82;5.18;;;;;;;13.17;82.53;102243.84;4973191;28;20132;-81
2023/06/05 01:30:52;;;;;;;7.70;4.85;;;;;;;12.99;84.70;102248.22;4989217;28;20582;-81
2023/06/05 01:33:45;;;;;;;7.43;4.90;;;;;;;12.99;84.53;102249.00;4990457;28;20153;-81
2023/06/05 01:36:13;;;;;;;8.52;5.82;;;;;;;12.97;84.58;102248.56;4979594;28;20042;-81
2023/06/05 01:38:40;;;;;;;9.40;5.53;;;;;;;12.98;84.77;102249.38;4974738;28;20147;-82
2023/06/05 01:41:06;;;;;;;8.65;5.22;;;;;;;12.89;85.68;102238.31;4979742;28;20034;-81
2023/06/05 01:43:33;;;;;;;7.43;4.97;;;;;;;13.07;83.85;102237.94;4976648;28;20030;-81
2023/06/05 01:45:59;;;;;;;8.07;4.97;;;;;;;12.87;85.26;102234.22;4965828;28;20586;-81
2023/06/05 01:48:30;;;;;;;7.25;4.63;;;;;;;13.03;84.22;102237.88;4972873;28;20057;-82
2023/06/05 01:50:57;;;;;;;10.48;6.05;;;;;;;12.89;85.09;102243.91;4968724;28;20077;-81
2023/06/05 01:53:23;;;;;;;9.25;5.47;;;;;;;12.96;84.36;102232.84;4984591;28;20042;-81
2023/06/05 01:55:49;;;;;;;10.07;5.15;;;;;;;12.94;84.35;102232.41;4974336;28;20117;-81
2023/06/05 01:58:15;;;;;;;9.52;5.38;;;;;;;12.87;84.87;102237.84;4980908;28;20387;-81
2023/06/05 02:00:41;;;;;;;7.88;5.45;;;;;;;12.91;84.15;102233.13;4981210;28;20167;-81
2023/06/05 02:03:07;;;;;;;8.02;5.03;;;;;;;12.80;84.98;102224.44;4979105;28;20371;-81
2023/06/05 02:05:33;;;;;;;7.10;5.15;;;;;;;12.85;85.01;102236.59;4976479;28;20406;-81
2023/06/05 02:07:58;;;;;;;8.43;4.65;;;;;;;12.97;83.44;102233.69;4976378;28;20026;-81
2023/06/05 02:10:24;;;;;;;7.30;5.30;;;;;;;12.96;83.66;102226.44;4972541;28;20457;-82
2023/06/05 02:12:50;;;;;;;7.75;4.57;;;;;;;12.96;83.69;102226.44;4985729;28;20042;-82
2023/06/05 02:15:15;;;;;;;8.95;5.25;;;;;;;12.83;84.64;102234.13;4993654;28;20076;-82
2023/06/05 02:17:53;;;;;;;7.30;5.38;;;;;;;12.91;83.86;102235.94;4975493;28;20022;-81
2023/06/05 02:20:22;;;;;;;7.82;5.00;;;;;;;12.76;84.87;102229.13;4977885;28;20433;-81
2023/06/05 02:22:51;;;;;;;11.25;6.43;;;;;;;12.82;84.16;102230.50;4980031;28;20200;-81
2023/06/05 02:25:18;;;;;;;10.32;5.95;;;;;;;12.46;86.75;102217.47;4976304;28;20072;-81
2023/06/05 02:27:43;;;;;;;11.68;5.15;;;;;;;12.53;86.36;102225.28;4979404;28;20026;-81
2023/06/05 02:30:09;;;;;;;8.00;5.82;;;;;;;12.56;85.72;102225.34;4981990;28;20089;-81
2023/06/05 02:32:35;;;;;;;8.32;5.03;;;;;;;12.64;84.88;102220.78;4976790;28;20109;-81
2023/06/05 02:35:02;;;;;;;9.38;5.50;;;;;;;12.60;86.11;102214.22;4980760;28;20026;-81
2023/06/05 02:37:28;;;;;;;8.57;5.88;;;;;;;12.65;85.06;102228.03;4981043;28;20488;-81
2023/06/05 02:39:53;;;;;;;7.32;5.38;;;;;;;12.65;85.25;102216.78;4974272;28;20406;-81
2023/06/05 02:42:19;;;;;;;9.00;6.00;;;;;;;12.64;84.86;102226.38;4974071;28;20034;-81
2023/06/05 02:44:46;;;;;;;7.93;5.00;;;;;;;12.63;84.95;102221.97;4987335;28;20026;-81
2023/06/05 02:47:12;;;;;;;11.68;5.25;;;;;;;12.49;85.26;102215.94;4969520;28;20641;-81
2023/06/05 02:49:37;;;;;;;10.95;5.75;;;;;;;12.45;86.92;102217.84;4972063;28;20481;-81
2023/06/05 02:52:03;;;;;;;7.90;5.40;;;;;;;12.67;84.59;102219.22;4998123;28;20041;-81
2023/06/05 02:54:29;;;;;;;9.57;5.55;;;;;;;12.48;86.53;102212.31;4973988;28;20109;-81
2023/06/05 02:56:56;;;;;;;8.52;5.65;;;;;;;12.47;86.05;102209.88;4967206;28;20049;-81
2023/06/05 02:59:24;;;;;;;8.75;5.28;;;;;;;12.59;85.22;102207.00;4971299;28;20060;-81
2023/06/05 03:01:52;;;;;;;7.20;5.32;;;;;;;12.57;85.22;102203.72;4969853;28;20040;-81
2023/06/05 03:04:20;;;;;;;9.35;5.75;;;;;;;12.48;86.16;102212.31;4974914;28;20030;-82
2023/06/05 03:06:48;;;;;;;13.68;6.57;;;;;;;12.48;85.59;102211.47;4976692;28;20026;-81
2023/06/05 03:09:13;;;;;;;8.77;5.72;;;;;;;12.32;87.04;102203.84;4972424;28;20026;-81
2023/06/05 03:11:38;;;;;;;8.98;5.63;;;;;;;12.47;85.87;102204.25;4988888;28;20521;-81
2023/06/05 03:14:04;;;;;;;9.98;5.43;;;;;;;12.23;87.31;102208.81;4984240;28;20560;-81
2023/06/05 03:16:33;;;;;;;10.23;5.68;;;;;;;12.40;86.39;102199.25;4974456;28;20469;-81
2023/06/05 03:18:58;;;;;;;11.93;6.13;;;;;;;12.38;86.85;102199.59;4970431;28;20489;-81
2023/06/05 03:21:24;;;;;;;8.15;5.38;;;;;;;12.44;85.84;102200.16;4982347;28;20054;-80
2023/06/05 03:23:49;;;;;;;8.57;5.32;;;;;;;12.37;86.37;102195.16;4981278;28;20041;-80
2023/06/05 03:26:14;;;;;;;8.25;5.88;;;;;;;12.30;86.32;102188.53;4972597;28;20041;-80
2023/06/05 03:28:41;;;;;;;10.07;5.72;;;;;;;12.41;85.08;102201.69;4981270;28;20036;-81
2023/06/05 03:31:06;;;;;;;10.07;6.53;;;;;;;12.18;87.21;102189.38;4965570;28;20054;-80
2023/06/05 03:33:31;;;;;;;13.05;5.60;;;;;;;12.19;88.26;102193.84;4993126;28;20475;-80
2023/06/05 03:35:57;;;;;;;8.27;5.43;;;;;;;12.19;86.94;102191.84;4976299;28;20026;-79
2023/06/05 03:38:23;;;;;;;7.13;5.40;;;;;;;12.02;88.46;102188.50;4975196;28;20087;-80
2023/06/05 03:40:51;;;;;;;8.77;5.85;;;;;;;12.26;86.86;102191.22;4973522;28;20034;-80
2023/06/05 03:43:16;;;;;;;13.90;5.60;;;;;;;12.10;87.80;102179.97;4981280;28;20101;-80
2023/06/05 03:45:41;;;;;;;13.82;6.20;;;;;;;12.22;86.48;102181.88;4996537;28;20562;-80
2023/06/05 03:48:08;;;;;;;7.70;5.07;;;;;;;12.23;86.75;102188.31;4973232;28;20966;-80
2023/06/05 03:50:37;;;;;;;9.85;5.65;;;;;;;12.36;85.53;102189.91;4967997;28;20290;-79
2023/06/05 03:53:03;;;;;;;9.52;5.68;;;;;;;12.23;86.22;102194.78;4965330;28;20030;-80
2023/06/05 03:55:46;;;;;;;8.73;6.05;;;;;;;12.21;86.68;102191.50;4967720;28;20055;-79
2023/06/05 03:58:14;;;;;;;16.60;5.80;;;;;;;12.26;86.61;102193.22;4973953;28;20030;-79
2023/06/05 04:00:44;;;;;;;8.60;6.05;;;;;;;11.94;88.37;102191.13;4967884;28;20034;-79
2023/06/05 04:03:10;;;;;;;10.77;6.25;;;;;;;12.02;88.02;102189.34;4969278;28;20096;-79
2023/06/05 04:05:38;;;;;;;7.80;5.22;;;;;;;12.06;87.43;102186.63;4970449;28;20039;-79
2023/06/05 04:08:04;;;;;;;10.00;5.75;;;;;;;12.06;87.67;102189.44;4969207;28;20406;-79
2023/06/05 04:10:29;;;;;;;14.48;6.15;;;;;;;12.12;87.07;102183.22;4986363;28;20461;-79
2023/06/05 04:12:55;;;;;;;8.77;5.50;;;;;;;12.05;86.63;102190.63;4970181;28;20463;-80
2023/06/05 04:15:21;;;;;;;8.30;5.65;;;;;;;11.98;87.84;102194.03;4953319;28;20053;-81
2023/06/05 04:17:46;;;;;;;10.23;6.57;;;;;;;11.60;90.43;102193.28;4972069;28;20026;-80
2023/06/05 04:20:14;;;;;;;8.45;5.57;;;;;;;11.96;88.05;102191.59;4971131;28;20404;-81
2023/06/05 04:22:43;;;;;;;10.85;6.22;;;;;;;12.13;87.72;102195.28;4974259;28;20411;-81
2023/06/05 04:25:12;;;;;;;7.80;5.45;;;;;;;12.11;87.71;102195.63;4978270;28;20023;-80
2023/06/05 04:27:38;;;;;;;13.52;6.20;;;;;;;12.15;87.64;102198.53;4972878;28;20034;-80
2023/06/05 04:30:07;;;;;;;10.45;5.60;;;;;;;12.24;86.74;102196.38;4977857;28;20475;-80
2023/06/05 04:32:36;;;;;;;8.27;6.22;;;;;;;12.26;86.57;102204.47;4975213;28;20569;-80
2023/06/05 04:35:06;;;;;;;11.55;5.45;;;;;;;12.05;88.30;102204.66;4970142;28;20026;-80
2023/06/05 04:37:32;;;;;;;10.13;5.85;;;;;;;12.04;89.37;102201.03;4973452;28;20031;-80
2023/06/05 04:39:58;;;;;;;11.35;6.00;;;;;;;12.19;86.97;102200.28;4971206;28;20038;-80
2023/06/05 04:42:25;;;;;;;10.20;6.38;;;;;;;11.97;89.90;102204.44;4974283;28;20139;-80
2023/06/05 04:44:57;;;;;;;8.80;5.45;;;;;;;12.03;88.85;102205.00;4972641;28;20030;-80
2023/06/05 04:47:22;;;;;;;12.45;7.25;;;;;;;11.92;90.67;102201.88;4970022;28;20109;-80
2023/06/05 04:49:51;;;;;;;9.43;5.63;;;;;;;12.17;87.69;102201.81;4975796;28;20743;-80
2023/06/05 04:52:17;;;;;;;13.95;6.63;;;;;;;12.11;90.07;102200.44;4983413;28;20463;-80
2023/06/05 04:54:42;;;;;;;14.80;6.00;;;;;;;12.10;89.83;102205.22;4971276;28;20035;-80
2023/06/05 04:57:10;;;;;;;10.40;6.85;;;;;;;12.02;90.09;102200.56;4972556;28;20524;-80
2023/06/05 04:59:35;;;;;;;10.35;5.80;;;;;;;12.10;89.81;102210.00;4983505;28;20069;-80
2023/06/05 05:02:01;;;;;;;11.82;6.38;;;;;;;12.02;90.18;102199.72;4977749;28;20466;-80
2023/06/05 05:04:26;;;;;;;10.48;7.22;;;;;;;11.95;91.53;102206.78;4971179;28;20039;-80
2023/06/05 05:06:52;;;;;;;11.20;6.38;;;;;;;12.12;91.42;102211.31;4972531;28;20034;-80
2023/06/05 05:09:18;;;;;;;16.42;5.93;;;;;;;12.05;92.02;102210.25;4973612;28;20327;-80
2023/06/05 05:11:46;;;;;;;10.50;6.03;;;;;;;11.98;91.70;102206.06;4979431;28;20030;-80
2023/06/05 05:14:11;;;;;;;11.75;6.57;;;;;;;12.12;91.17;102207.66;4975223;28;20055;-80
2023/06/05 05:16:37;;;;;;;12.38;7.00;;;;;;;12.18;93.29;102215.50;4972460;28;20499;-80
2023/06/05 05:19:02;;;;;;;10.52;6.15;;;;;;;12.33;90.54;102207.47;4978318;28;20087;-80
2023/06/05 05:21:28;;;;;;;13.60;7.13;;;;;;;12.15;91.77;102215.38;4973892;28;20049;-80
2023/06/05 05:23:53;;;;;;;10.60;5.95;;;;;;;12.34;91.66;102221.16;4981770;28;20091;-81
2023/06/05 05:26:18;;;;;;;11.52;7.18;;;;;;;12.05;96.77;102210.25;4976571;28;20041;-80
2023/06/05 05:28:44;;;;;;;7.68;5.55;;;;;;;12.52;89.10;102218.03;4978317;28;20038;-80
2023/06/05 05:31:09;;;;;;;17.17;7.53;;;;;;;12.22;91.74;102221.19;4971019;28;20069;-80
2023/06/05 05:33:35;;;;;;;11.95;6.18;;;;;;;12.29;96.10;102227.03;4978434;28;20457;-80
2023/06/05 05:36:00;;;;;;;9.88;5.95;;;;;;;12.47;90.34;102215.47;4978104;28;20109;-80
2023/06/05 05:38:26;;;;;;;12.40;6.75;;;;;;;12.31;97.96;102221.88;4994390;28;20125;-80
2023/06/05 05:40:51;;;;;;;11.23;6.90;;;;;;;12.41;94.21;102223.34;4970739;28;20043;-80
2023/06/05 05:43:16;;;;;;;12.02;6.63;;;;;;;12.45;92.23;102218.63;4974363;28;20037;-80
2023/06/05 05:45:43;;;;;;;10.48;7.03;;;;;;;12.06;97.54;102225.91;4970093;28;20038;-80
2023/06/05 05:48:09;;;;;;;13.63;7.53;;;;;;;11.73;100.00;102226.91;4975411;28;20037;-80
2023/06/05 05:50:34;;;;;;;13.10;6.75;;;;;;;12.04;99.40;102228.25;4978018;28;20038;-79
2023/06/05 05:53:00;;;;;;;14.15;6.10;;;;;;;12.12;97.34;102221.69;4991964;28;20030;-79
2023/06/05 05:55:25;;;;;;;12.40;6.68;;;;;;;12.39;98.53;102226.50;4976781;28;20030;-79
2023/06/05 05:57:50;;;;;;;12.52;7.55;;;;;;;12.19;99.08;102233.16;4978283;28;20026;-80
2023/06/05 06:00:16;;;;;;;14.10;6.95;;;;;;;12.29;100.00;102232.66;4976439;28;20026;-79
2023/06/05 06:02:42;;;;;;;10.52;5.85;;;;;;;12.27;96.91;102222.91;4981262;28;20066;-79
2023/06/05 06:05:08;;;;;;;10.30;5.82;;;;;;;12.36;99.14;102223.59;4978638;28;20085;-79
2023/06/05 06:07:35;;;;;;;11.40;6.22;;;;;;;12.00;100.00;102226.19;4976560;28;20058;-79
2023/06/05 06:10:00;;;;;;;12.50;7.28;;;;;;;12.42;99.55;102230.59;4973826;28;20031;-84
2023/06/05 06:12:27;;;;;;;9.60;6.32;;;;;;;12.92;96.62;102215.13;4968905;28;20026;-80
2023/06/05 06:14:54;;;;;;;12.27;6.22;;;;;;;12.77;96.76;102229.94;4979782;28;20038;-82
2023/06/05 06:17:20;;;;;;;13.10;5.85;;;;;;;13.75;95.14;102217.16;4976523;28;20030;-82
2023/06/05 06:19:46;;;;;;;11.60;7.32;;;;;;;13.50;92.42;102220.19;4978860;28;20041;-84
2023/06/05 06:22:12;;;;;;;7.78;5.53;;;;;;;14.72;85.37;102214.34;4993476;28;20093;-82
2023/06/05 06:24:39;;;;;;;9.73;6.05;;;;;;;14.79;89.11;102222.91;4987289;28;20495;-84
2023/06/05 06:27:06;;;;;;;13.00;6.47;;;;;;;14.66;83.56;102224.28;4979229;28;20026;-85
2023/06/05 06:29:32;;;;;;;11.52;6.43;;;;;;;14.10;87.53;102227.53;4985862;28;20094;-84
2023/06/05 06:31:57;;;;;;;11.52;6.10;;;;;;;13.66;90.29;102217.34;4974049;28;20368;-79
2023/06/05 06:34:24;;;;;;;10.48;6.78;;;;;;;13.01;96.16;102226.19;4971315;28;20030;-78
2023/06/05 06:36:50;;;;;;;10.98;6.85;;;;;;;12.95;95.61;102208.75;4982523;28;20042;-79
2023/06/05 06:39:15;;;;;;;10.02;6.15;;;;;;;13.16;94.35;102225.34;4981739;28;20030;-78
2023/06/05 06:41:41;;;;;;;8.82;5.70;;;;;;;13.08;96.05;102217.09;4979208;28;20442;-79
2023/06/05 06:44:06;;;;;;;9.77;5.80;;;;;;;12.97;95.86;102226.06;4979423;28;20533;-78
2023/06/05 06:46:32;;;;;;;10.23;6.05;;;;;;;13.18;97.24;102223.00;4974326;28;20089;-79
2023/06/05 06:48:57;;;;;;;9.88;6.05;;;;;;;13.22;94.94;102223.91;4989226;28;20569;-79
2023/06/05 06:51:25;;;;;;;11.18;5.15;;;;;;;13.22;94.98;102223.91;4981543;28;20039;-79
2023/06/05 06:53:50;;;;;;;9.20;5.20;;;;;;;13.34;93.96;102220.19;5000535;28;20041;-79
2023/06/05 06:56:17;;;;;;;11.40;5.85;;;;;;;13.24;97.80;102226.34;4974890;28;20068;-79
2023/06/05 06:58:43;;;;;;;13.82;5.75;;;;;;;13.35;96.74;102218.22;4981409;28;20023;-79
2023/06/05 07:01:12;;;;;;;6.57;4.93;;;;;;;13.30;96.68;102230.56;4981501;28;20022;-79
2023/06/05 07:03:39;;;;;;;9.65;5.93;;;;;;;13.56;92.11;102229.97;4985504;28;20105;-79
2023/06/05 07:06:05;;;;;;;9.20;6.00;;;;;;;13.75;92.19;102234.03;4986203;28;20404;-79
2023/06/05 07:08:30;;;;;;;8.52;4.93;;;;;;;13.56;91.82;102231.97;4977869;28;20066;-78
2023/06/05 07:10:56;;;;;;;10.80;6.03;;;;;;;13.83;94.28;102235.81;4974220;28;20033;-79
2023/06/05 07:13:22;;;;;;;9.35;4.75;;;;;;;13.79;93.00;102241.38;4978072;28;20030;-79
2023/06/05 07:15:48;;;;;;;11.10;6.15;;;;;;;13.72;92.89;102234.75;4970716;28;20053;-79
2023/06/05 07:18:13;;;;;;;7.55;4.78;;;;;;;13.81;92.49;102235.38;4977908;28;20062;-79
2023/06/05 07:20:39;;;;;;;11.27;5.65;;;;;;;13.58;93.38;102233.25;4971878;28;20457;-79
2023/06/05 07:23:04;;;;;;;8.23;5.13;;;;;;;13.80;93.84;102233.72;4971469;28;21056;-79
2023/06/05 07:25:29;;;;;;;9.27;5.43;;;;;;;13.93;91.95;102240.03;4967997;28;20109;-79
2023/06/05 07:27:55;;;;;;;10.18;5.47;;;;;;;13.88;92.52;102229.91;4969849;28;20134;-79
2023/06/05 07:30:20;;;;;;;8.32;4.95;;;;;;;14.00;90.91;102238.22;4987784;28;20410;-79
2023/06/05 07:32:46;;;;;;;8.07;4.95;;;;;;;13.74;92.54;102232.38;4978314;28;20143;-79
2023/06/05 07:35:12;;;;;;;7.60;5.93;;;;;;;13.90;89.25;102238.78;4985425;28;20093;-79
2023/06/05 07:37:38;;;;;;;11.35;6.40;;;;;;;13.96;90.17;102244.97;4991648;28;20042;-79
2023/06/05 07:40:05;;;;;;;9.35;6.20;;;;;;;14.07;90.22;102240.38;4982755;28;20055;-79
2023/06/05 07:42:31;;;;;;;8.35;5.57;;;;;;;13.89;92.50;102239.16;4994365;28;20746;-79
2023/06/05 07:44:56;;;;;;;8.00;4.95;;;;;;;13.83;92.99;102241.44;4980704;28;20041;-79
2023/06/05 07:47:22;;;;;;;9.43;5.68;;;;;;;14.25;90.45;102235.09;4973676;28;20035;-79
2023/06/05 07:49:58;;;;;;;9.65;5.63;;;;;;;14.43;89.36;102236.28;4974357;28;20034;-79
2023/06/05 07:52:24;;;;;;;7.60;4.93;;;;;;;14.68;88.29;102236.00;4973069;28;20149;-80
2023/06/05 07:54:50;;;;;;;12.00;6.03;;;;;;;14.35;90.17;102240.16;4978741;28;20107;-80
2023/06/05 07:57:16;;;;;;;8.18;5.50;;;;;;;14.10;91.16;102242.44;4978455;28;20032;-80
2023/06/05 07:59:42;;;;;;;8.43;5.55;;;;;;;14.40;88.53;102242.69;4978728;28;20034;-80
2023/06/05 08:02:07;;;;;;;8.18;5.03;;;;;;;14.78;87.88;102235.41;4969016;28;20077;-80
2023/06/05 08:04:33;;;;;;;8.93;5.57;;;;;;;14.69;87.11;102240.44;4974981;28;20118;-79
2023/06/05 08:06:59;;;;;;;7.85;5.60;;;;;;;14.79;88.96;102236.22;4978597;28;20038;-79
2023/06/05 08:09:24;;;;;;;9.93;5.60;;;;;;;14.62;87.72;102224.22;4980897;28;20023;-79
2023/06/05 08:11:50;;;;;;;10.07;5.60;;;;;;;14.89;88.06;102234.78;4985671;28;20120;-80
2023/06/05 08:14:15;;;;;;;9.93;5.45;;;;;;;14.96;86.39;102234.91;4979332;28;20030;-79
2023/06/05 08:16:40;;;;;;;9.50;6.25;;;;;;;14.81;87.50;102231.00;4986155;28;20117;-79
2023/06/05 08:19:06;;;;;;;9.23;5.60;;;;;;;14.94;85.76;102237.28;4992399;28;20080;-79
2023/06/05 08:21:33;;;;;;;8.60;4.70;;;;;;;15.07;86.50;102237.91;4990204;28;20157;-79
2023/06/05 08:23:58;;;;;;;10.57;5.63;;;;;;;15.16;86.28;102228.03;4995544;28;20113;-79
2023/06/05 08:26:23;;;;;;;8.40;4.95;;;;;;;15.44;84.04;102226.84;4979311;28;20501;-78
2023/06/05 08:28:49;;;;;;;9.52;4.90;;;;;;;15.39;83.84;102227.16;4982677;28;20039;-78
2023/06/05 08:31:15;;;;;;;7.97;5.00;;;;;;;15.00;84.99;102218.88;4995196;28;20034;-79
2023/06/05 08:33:41;;;;;;;7.13;4.88;;;;;;;15.14;83.87;102218.31;4982426;28;20033;-79
2023/06/05 08:36:06;;;;;;;5.57;4.20;;;;;;;15.56;83.25;102218.19;5004842;28;20550;-79
2023/06/05 08:38:34;;;;;;;7.82;5.30;;;;;;;15.51;83.44;102204.38;4984316;28;20692;-80
2023/06/05 08:41:02;;;;;;;5.68;4.38;;;;;;;16.06;82.07;102206.78;4990876;28;20030;-79
2023/06/05 08:43:28;;;;;;;8.57;5.28;;;;;;;15.79;82.11;102209.69;4992051;28;20034;-79
2023/06/05 08:45:56;;;;;;;7.32;4.88;;;;;;;15.78;80.21;102204.41;4977418;28;20081;-79
2023/06/05 08:48:24;;;;;;;6.15;4.70;;;;;;;15.71;80.56;102210.75;4993057;28;20038;-79
2023/06/05 08:50:51;;;;;;;6.43;4.88;;;;;;;15.82;80.78;102213.75;4990751;28;20050;-79
2023/06/05 08:53:17;;;;;;;7.93;5.10;;;;;;;15.92;80.83;102218.72;4977312;28;20485;-79
2023/06/05 08:55:50;;;;;;;8.00;4.90;;;;;;;16.13;79.63;102212.56;4977058;28;20372;-79
2023/06/05 08:58:16;;;;;;;7.38;5.03;;;;;;;16.28;78.53;102216.38;4976608;28;20565;-80
2023/06/05 09:00:42;;;;;;;7.82;4.75;;;;;;;16.25;78.70;102208.63;4977319;28;20037;-79
2023/06/05 09:03:13;;;;;;;7.15;5.15;;;;;;;16.34;77.72;102212.00;4980530;28;20043;-79
2023/06/05 09:05:38;;;;;;;13.77;4.90;;;;;;;16.42;77.41;102202.41;4978090;28;20034;-79
2023/06/05 09:08:03;;;;;;;6.13;3.25;;;;;;;17.47;75.07;102201.34;4977597;28;20041;-81
2023/06/05 09:10:30;;;;;;;4.90;3.33;;;;;;;18.12;70.40;102213.09;4981476;28;20041;-80
2023/06/05 09:12:57;;;;;;;6.07;3.72;;;;;;;17.98;71.07;102202.50;5000377;28;20489;-81
2023/06/05 09:15:30;;;;;;;4.95;3.58;;;;;;;18.26;69.45;102207.50;4980796;28;20490;-80
2023/06/05 09:18:03;;;;;;;8.23;4.25;;;;;;;16.97;73.65;102190.47;4979830;28;20019;-80
2023/06/05 09:20:34;;;;;;;6.72;3.35;;;;;;;17.77;72.70;102206.00;4982096;28;20133;-80
2023/06/05 09:23:00;;;;;;;6.80;4.32;;;;;;;17.17;72.79;102201.53;4987126;28;20038;-80
2023/06/05 09:25:28;;;;;;;6.68;4.05;;;;;;;17.11;74.99;102198.25;4984393;28;20129;-81
2023/06/05 09:28:11;;;;;;;6.82;4.40;;;;;;;17.00;74.86;102197.34;4975288;28;20538;-81
2023/06/05 09:30:56;;;;;;;6.90;3.90;;;;;;;18.01;71.81;102191.19;4980788;28;20470;-81
2023/06/05 09:33:26;;;;;;;6.63;4.50;;;;;;;18.40;70.18;102199.00;4987885;28;20031;-81
2023/06/05 09:36:03;;;;;;;5.15;3.50;;;;;;;18.84;67.86;102189.41;4989683;28;20033;-81
2023/06/05 09:38:30;;;;;;;7.38;3.13;;;;;;;18.97;67.97;102197.53;4986853;28;20076;-82
2023/06/05 09:41:10;;;;;;;4.65;3.58;;;;;;;18.11;68.53;102188.78;4981277;28;21850;-84
2023/06/05 09:43:36;;;;;;;9.23;4.38;;;;;;;18.67;68.69;102195.84;4982755;28;20026;-82
2023/06/05 09:46:15;;;;;;;5.45;3.67;;;;;;;18.91;69.35;102182.13;4988640;28;20116;-81
2023/06/05 09:48:43;;;;;;;4.57;3.67;;;;;;;19.06;66.51;102195.13;5007090;28;20026;-81
2023/06/05 09:51:11;;;;;;;6.35;4.13;;;;;;;18.64;66.69;102188.97;5000286;28;20069;-81
2023/06/05 09:53:50;;;;;;;6.22;3.42;;;;;;;18.57;65.88;102188.94;4980192;28;20092;-81
2023/06/05 09:56:19;;;;;;;6.60;4.10;;;;;;;18.53;66.18;102181.63;5017592;28;20022;-80
2023/06/05 09:58:48;;;;;;;7.57;5.20;;;;;;;18.08;69.25;102188.38;4978236;28;20058;-80
2023/06/05 10:01:22;;;;;;;8.82;3.92;;;;;;;18.42;68.51;102179.56;4981987;28;20585;-80
2023/06/05 10:04:05;;;;;;;4.60;3.80;;;;;;;18.56;69.06;102178.00;4983360;28;20026;-81
2023/06/05 10:06:32;;;;;;;;;;;;;;;18.86;67.56;102175.63;4980991;28;20034;-81
2023/06/05 10:08:58;;;;;;;5.80;3.63;;;;;;;18.83;67.11;102179.28;4978151;28;20432;-81
2023/06/05 10:11:26;;;;;;;6.47;3.90;;;;;;;19.05;65.70;102176.47;4977996;28;20034;-81
2023/06/05 10:13:57;;;;;;;4.40;3.45;;;;;;;19.03;64.58;102173.22;4981104;28;20030;-80
2023/06/05 10:16:22;;;;;;;6.70;3.90;;;;;;;18.95;66.65;102165.91;4982560;28;20640;-81
2023/06/05 10:18:49;;;;;;;6.38;3.92;;;;;;;19.08;67.20;102165.13;4981697;28;20022;-80
2023/06/05 10:21:19;;;;;;;6.00;4.47;;;;;;;19.21;66.84;102167.56;4980780;28;20100;-81
2023/06/05 10:24:05;;;;;;;8.80;3.28;;;;;;;19.54;64.78;102180.44;4980966;28;20046;-82
2023/06/05 10:26:51;;;;;;;5.00;3.35;;;;;;;19.65;65.06;102167.06;4976709;28;20026;-83
2023/06/05 10:29:37;;;;;;;6.22;4.00;;;;;;;19.40;65.42;102167.13;4978078;28;20074;-83
2023/06/05 10:32:08;;;;;;;5.68;3.80;;;;;;;19.20;68.61;102161.03;4977690;28;20028;-82
2023/06/05 10:34:50;;;;;;;8.33;4.00;;;;;;;19.20;65.78;102158.19;4978123;28;20457;-84
2023/06/05 10:37:34;;;;;;;6.53;3.05;;;;;;;19.32;67.75;102151.31;4981362;28;20031;-83
2023/06/05 10:39:59;;;;;;;4.82;3.38;;;;;;;19.06;65.65;102155.41;4997168;28;20037;-83
2023/06/05 10:42:29;;;;;;;5.22;3.78;;;;;;;19.22;65.96;102152.94;4982979;28;20030;-82
2023/06/05 10:44:55;;;;;;;7.03;3.35;;;;;;;19.28;65.83;102150.50;4997798;28;20470;-81
2023/06/05 10:47:32;;;;;;;5.50;3.95;;;;;;;19.24;65.86;102161.84;4980415;28;20462;-79
2023/06/05 10:50:16;;;;;;;7.00;3.95;;;;;;;19.92;63.12;102160.91;4985911;28;20034;-79
2023/06/05 10:52:42;;;;;;;9.20;3.65;;;;;;;20.20;62.94;102154.28;4980750;28;20112;-79
2023/06/05 10:55:09;;;;;;;5.47;3.30;;;;;;;19.67;63.57;102152.47;4980601;28;20479;-78
2023/06/05 10:58:03;;;;;;;5.70;4.35;;;;;;;19.68;62.66;102146.34;4982998;28;20403;-79
2023/06/05 11:00:32;;;;;;;6.35;4.10;;;;;;;19.82;61.89;102147.56;4980052;28;20045;-79
2023/06/05 11:02:58;;;;;;;7.68;3.63;;;;;;;20.41;61.04;102153.34;4974066;28;20151;-79
2023/06/05 11:05:24;;;;;;;6.70;3.97;;;;;;;20.23;62.71;102142.06;4979289;28;20444;-79
2023/06/05 11:08:15;;;;;;;6.20;3.95;;;;;;;20.54;61.01;102147.19;4974907;28;20058;-79
2023/06/05 11:11:06;;;;;;;7.03;3.92;;;;;;;20.25;61.60;102145.31;4979365;28;20557;-79
2023/06/05 11:13:51;;;;;;;6.30;3.97;;;;;;;20.78;60.86;102143.38;4980645;28;20034;-79
2023/06/05 11:16:33;;;;;;;5.22;3.85;;;;;;;20.87;58.98;102132.34;4970676;28;20590;-79
2023/06/05 11:19:20;;;;;;;4.97;3.35;;;;;;;20.37;62.13;102134.69;4978432;28;20463;-79
2023/06/05 11:22:09;;;;;;;5.45;3.33;;;;;;;20.71;62.57;102137.75;4985864;28;20046;-79
2023/06/05 11:24:37;;;;;;;4.72;3.05;;;;;;;20.89;60.97;102141.25;4979613;28;20050;-79
2023/06/05 11:27:05;;;;;;;4.65;3.25;;;;;;;20.80;60.01;102128.72;4979018;28;20561;-79